METAR
Diposting tanggal: 16 November 2020

Pukul : 07.00 UTC

Isi :
METAR WAGI 300700Z 25005KT 9000 BKN012 29/24 Q1008 NOSIG=